BON318V FALE-FLKK
Flight info
| Callsign | BON318V |
|---|---|
| Flight time | 2h 18m |
| Altitude | 37000 |
| Route | ITMIL1C ITMIL UT915 VMV/N0450F380 UB529 GADBA GADBA1A |
| Aircraft | B738/M-SDE2E3FGHIRWXY/LB1 |
Departure
| Time | 2026-04-21 07:45 |
|---|---|
| Airport | King Shaka International Airport (FALE) |
Arrival
| Time | 2026-04-21 10:03 |
|---|---|
| Airport | Kenneth Kaunda International Airport (FLKK) |
| Time | Latitude | Longitude | Altitude | Speed | Heading |
|---|---|---|---|---|---|
| 2026-04-21 07:18 | -29.62167 | 31.10400 | 306 ft | 0 kts | 307° |
| 2026-04-21 07:39 | -29.62169 | 31.10402 | 223 ft | 3 kts | 307° |
| 2026-04-21 07:39 | -29.62183 | 31.10428 | 305 ft | 4 kts | 292° |
| 2026-04-21 07:39 | -29.62188 | 31.10456 | 305 ft | 4 kts | 259° |
| 2026-04-21 07:39 | -29.62180 | 31.10475 | 304 ft | 0 kts | 217° |
| 2026-04-21 07:42 | -29.62191 | 31.10467 | 304 ft | 4 kts | 217° |
| 2026-04-21 07:42 | -29.62231 | 31.10434 | 307 ft | 10 kts | 206° |
| 2026-04-21 07:42 | -29.62288 | 31.10468 | 305 ft | 11 kts | 120° |
| 2026-04-21 07:42 | -29.62331 | 31.10536 | 309 ft | 10 kts | 127° |
| 2026-04-21 07:43 | -29.62375 | 31.10601 | 309 ft | 10 kts | 128° |
| 2026-04-21 07:43 | -29.62417 | 31.10664 | 304 ft | 10 kts | 128° |
| 2026-04-21 07:43 | -29.62467 | 31.10739 | 299 ft | 14 kts | 127° |
| 2026-04-21 07:43 | -29.62488 | 31.10790 | 301 ft | 3 kts | 52° |
| 2026-04-21 07:44 | -29.62468 | 31.10806 | 301 ft | 5 kts | 35° |
| 2026-04-21 07:44 | -29.62328 | 31.10927 | 306 ft | 58 kts | 37° |
| 2026-04-21 07:44 | -29.61817 | 31.11371 | 304 ft | 124 kts | 37° |
| 2026-04-21 07:44 | -29.61016 | 31.12085 | 519 ft | 156 kts | 36° |
| 2026-04-21 07:45 | -29.60153 | 31.12842 | 1296 ft | 160 kts | 37° |
| 2026-04-21 07:45 | -29.59249 | 31.13612 | 2181 ft | 153 kts | 37° |
| 2026-04-21 07:45 | -29.58367 | 31.14398 | 2618 ft | 172 kts | 37° |
| 2026-04-21 07:45 | -29.57383 | 31.15296 | 2853 ft | 193 kts | 37° |
| 2026-04-21 07:46 | -29.56328 | 31.16381 | 2983 ft | 214 kts | 44° |
| 2026-04-21 07:46 | -29.55249 | 31.17678 | 3190 ft | 234 kts | 45° |
| 2026-04-21 07:46 | -29.54090 | 31.19104 | 3532 ft | 253 kts | 45° |
| 2026-04-21 07:46 | -29.52870 | 31.20598 | 4164 ft | 256 kts | 44° |
| 2026-04-21 07:47 | -29.51634 | 31.22124 | 4757 ft | 264 kts | 43° |
| 2026-04-21 07:47 | -29.50364 | 31.23666 | 5351 ft | 269 kts | 42° |
| 2026-04-21 07:47 | -29.49075 | 31.25250 | 5998 ft | 274 kts | 42° |
| 2026-04-21 07:47 | -29.47756 | 31.26869 | 6561 ft | 281 kts | 41° |
| 2026-04-21 07:48 | -29.46405 | 31.28523 | 7143 ft | 286 kts | 41° |
| 2026-04-21 07:48 | -29.45034 | 31.30200 | 7756 ft | 291 kts | 40° |
| 2026-04-21 07:48 | -29.43640 | 31.31908 | 8347 ft | 296 kts | 40° |
| 2026-04-21 07:48 | -29.42218 | 31.33640 | 8992 ft | 300 kts | 40° |
| 2026-04-21 07:49 | -29.40773 | 31.35401 | 9648 ft | 306 kts | 39° |
| 2026-04-21 07:49 | -29.39305 | 31.37189 | 10253 ft | 311 kts | 39° |
| 2026-04-21 07:49 | -29.37769 | 31.39050 | 10475 ft | 332 kts | 39° |
| 2026-04-21 07:49 | -29.36133 | 31.41032 | 10641 ft | 353 kts | 40° |
| 2026-04-21 07:50 | -29.34400 | 31.43133 | 10818 ft | 371 kts | 40° |
| 2026-04-21 07:50 | -29.32606 | 31.45315 | 11211 ft | 380 kts | 40° |
| 2026-04-21 07:50 | -29.30784 | 31.47538 | 11791 ft | 383 kts | 41° |
| 2026-04-21 07:50 | -29.28957 | 31.49768 | 12451 ft | 384 kts | 41° |
| 2026-04-21 07:51 | -29.27121 | 31.52004 | 13083 ft | 387 kts | 40° |
| 2026-04-21 07:51 | -29.25270 | 31.54253 | 13707 ft | 389 kts | 40° |
| 2026-04-21 07:51 | -29.23400 | 31.56522 | 14258 ft | 393 kts | 40° |
| 2026-04-21 07:51 | -29.21509 | 31.58813 | 14783 ft | 398 kts | 40° |
| 2026-04-21 07:52 | -29.19605 | 31.61119 | 15352 ft | 401 kts | 40° |
| 2026-04-21 07:52 | -29.17685 | 31.63444 | 15916 ft | 404 kts | 40° |
| 2026-04-21 07:52 | -29.15742 | 31.65793 | 16464 ft | 408 kts | 40° |
| 2026-04-21 07:52 | -29.13784 | 31.68158 | 16991 ft | 411 kts | 40° |
| 2026-04-21 07:53 | -29.11831 | 31.70514 | 17519 ft | 415 kts | 40° |
| 2026-04-21 07:53 | -29.09837 | 31.72921 | 18064 ft | 419 kts | 40° |
| 2026-04-21 07:53 | -29.07826 | 31.75346 | 18540 ft | 422 kts | 40° |
| 2026-04-21 07:53 | -29.05760 | 31.77735 | 19003 ft | 420 kts | 33° |
| 2026-04-21 07:54 | -29.03291 | 31.79367 | 19423 ft | 405 kts | 12° |
| 2026-04-21 07:54 | -29.00578 | 31.80018 | 19929 ft | 395 kts | 358° |
| 2026-04-21 07:54 | -28.97880 | 31.79866 | 20397 ft | 386 kts | 344° |
| 2026-04-21 07:54 | -28.95251 | 31.79246 | 20941 ft | 385 kts | 342° |
| 2026-04-21 07:55 | -28.92634 | 31.78567 | 21429 ft | 387 kts | 341° |
| 2026-04-21 07:55 | -28.90008 | 31.77869 | 21901 ft | 389 kts | 341° |
| 2026-04-21 07:55 | -28.87359 | 31.77169 | 22377 ft | 391 kts | 341° |
| 2026-04-21 07:55 | -28.84699 | 31.76477 | 22846 ft | 393 kts | 341° |
| 2026-04-21 07:56 | -28.82021 | 31.75790 | 23361 ft | 395 kts | 341° |
| 2026-04-21 07:56 | -28.79334 | 31.75108 | 23741 ft | 398 kts | 341° |
| 2026-04-21 07:56 | -28.76616 | 31.74422 | 24041 ft | 402 kts | 341° |
| 2026-04-21 07:56 | -28.73882 | 31.73736 | 24411 ft | 403 kts | 341° |
| 2026-04-21 07:57 | -28.71144 | 31.73052 | 24811 ft | 403 kts | 341° |
| 2026-04-21 07:57 | -28.68405 | 31.72361 | 25215 ft | 404 kts | 341° |
| 2026-04-21 07:57 | -28.65657 | 31.71675 | 25577 ft | 405 kts | 341° |
| 2026-04-21 07:57 | -28.62897 | 31.70989 | 25925 ft | 407 kts | 341° |
| 2026-04-21 07:58 | -28.60119 | 31.70299 | 26242 ft | 409 kts | 341° |
| 2026-04-21 07:58 | -28.57329 | 31.69626 | 26607 ft | 411 kts | 342° |
| 2026-04-21 07:58 | -28.54530 | 31.68960 | 26885 ft | 413 kts | 341° |
| 2026-04-21 07:58 | -28.51717 | 31.68255 | 27166 ft | 415 kts | 341° |
| 2026-04-21 07:59 | -28.48895 | 31.67537 | 27478 ft | 416 kts | 341° |
| 2026-04-21 07:59 | -28.46059 | 31.66822 | 27784 ft | 418 kts | 342° |
| 2026-04-21 07:59 | -28.43201 | 31.66149 | 27994 ft | 422 kts | 341° |
| 2026-04-21 07:59 | -28.40330 | 31.65429 | 28336 ft | 421 kts | 341° |
| 2026-04-21 08:00 | -28.37479 | 31.64705 | 28761 ft | 420 kts | 341° |
| 2026-04-21 08:00 | -28.34627 | 31.63983 | 29020 ft | 421 kts | 341° |
| 2026-04-21 08:00 | -28.31752 | 31.63255 | 29164 ft | 425 kts | 341° |
| 2026-04-21 08:00 | -28.28856 | 31.62528 | 29366 ft | 428 kts | 341° |
| 2026-04-21 08:01 | -28.25953 | 31.61807 | 29711 ft | 427 kts | 341° |
| 2026-04-21 08:01 | -28.23052 | 31.61091 | 30101 ft | 425 kts | 341° |
| 2026-04-21 08:01 | -28.20170 | 31.60379 | 30437 ft | 424 kts | 341° |
| 2026-04-21 08:02 | -28.14429 | 31.58919 | 31081 ft | 422 kts | 341° |
| 2026-04-21 08:02 | -28.11559 | 31.58220 | 31414 ft | 421 kts | 341° |
| 2026-04-21 08:02 | -28.08695 | 31.57526 | 31702 ft | 421 kts | 341° |
| 2026-04-21 08:02 | -28.05826 | 31.56826 | 31942 ft | 422 kts | 340° |
| 2026-04-21 08:03 | -28.02962 | 31.56130 | 32292 ft | 420 kts | 340° |
| 2026-04-21 08:03 | -28.00114 | 31.55431 | 32666 ft | 418 kts | 339° |
| 2026-04-21 08:03 | -27.97278 | 31.54733 | 32986 ft | 417 kts | 340° |
| 2026-04-21 08:03 | -27.94441 | 31.54032 | 33221 ft | 417 kts | 339° |
| 2026-04-21 08:04 | -27.91611 | 31.53329 | 33532 ft | 416 kts | 339° |
| 2026-04-21 08:04 | -27.88798 | 31.52633 | 33938 ft | 413 kts | 339° |
| 2026-04-21 08:04 | -27.85987 | 31.51942 | 34187 ft | 414 kts | 339° |
| 2026-04-21 08:04 | -27.83176 | 31.51253 | 34392 ft | 414 kts | 339° |
| 2026-04-21 08:05 | -27.80364 | 31.50563 | 34633 ft | 413 kts | 339° |
| 2026-04-21 08:05 | -27.77595 | 31.49884 | 34938 ft | 411 kts | 339° |
| 2026-04-21 08:05 | -27.74809 | 31.49203 | 35270 ft | 409 kts | 339° |
| 2026-04-21 08:05 | -27.72037 | 31.48525 | 35558 ft | 406 kts | 339° |
| 2026-04-21 08:06 | -27.69279 | 31.47850 | 35822 ft | 405 kts | 339° |
| 2026-04-21 08:06 | -27.66527 | 31.47174 | 36077 ft | 404 kts | 339° |
| 2026-04-21 08:06 | -27.63781 | 31.46500 | 36308 ft | 404 kts | 339° |
| 2026-04-21 08:06 | -27.61031 | 31.45824 | 36447 ft | 405 kts | 339° |
| 2026-04-21 08:07 | -27.58275 | 31.45148 | 36538 ft | 407 kts | 339° |
| 2026-04-21 08:07 | -27.55503 | 31.44469 | 36733 ft | 407 kts | 339° |
| 2026-04-21 08:07 | -27.52751 | 31.43792 | 36996 ft | 405 kts | 339° |
| 2026-04-21 08:08 | -27.47288 | 31.42464 | 37110 ft | 402 kts | 339° |
| 2026-04-21 08:08 | -27.41801 | 31.41122 | 37121 ft | 405 kts | 339° |
| 2026-04-21 08:09 | -27.36279 | 31.39782 | 37138 ft | 406 kts | 339° |
| 2026-04-21 08:09 | -27.30717 | 31.38521 | 37122 ft | 413 kts | 345° |
| 2026-04-21 08:10 | -27.24919 | 31.38107 | 37119 ft | 418 kts | 348° |
| 2026-04-21 08:10 | -27.19108 | 31.37775 | 37113 ft | 416 kts | 348° |
| 2026-04-21 08:11 | -27.13341 | 31.37423 | 37115 ft | 414 kts | 347° |
| 2026-04-21 08:11 | -27.07615 | 31.37047 | 37123 ft | 411 kts | 347° |
| 2026-04-21 08:12 | -27.01903 | 31.36665 | 37111 ft | 412 kts | 347° |
| 2026-04-21 08:12 | -26.96199 | 31.36286 | 37135 ft | 410 kts | 347° |
| 2026-04-21 08:13 | -26.90506 | 31.35909 | 37133 ft | 410 kts | 347° |
| 2026-04-21 08:13 | -26.84791 | 31.35528 | 37108 ft | 412 kts | 348° |
| 2026-04-21 08:14 | -26.79058 | 31.35154 | 37125 ft | 413 kts | 348° |
| 2026-04-21 08:14 | -26.73351 | 31.34773 | 37137 ft | 415 kts | 348° |
| 2026-04-21 08:15 | -26.67576 | 31.34389 | 37152 ft | 417 kts | 348° |
| 2026-04-21 08:15 | -26.61780 | 31.34012 | 37155 ft | 418 kts | 348° |
| 2026-04-21 08:16 | -26.55979 | 31.33630 | 37147 ft | 418 kts | 348° |
| 2026-04-21 08:16 | -26.50177 | 31.33191 | 37154 ft | 415 kts | 344° |
| 2026-04-21 08:17 | -26.44516 | 31.32112 | 37152 ft | 412 kts | 342° |
| 2026-04-21 08:17 | -26.38873 | 31.30928 | 37152 ft | 413 kts | 342° |
| 2026-04-21 08:18 | -26.33221 | 31.29778 | 37134 ft | 412 kts | 342° |
| 2026-04-21 08:18 | -26.27571 | 31.28656 | 37147 ft | 412 kts | 342° |
| 2026-04-21 08:19 | -26.21922 | 31.27542 | 37146 ft | 412 kts | 342° |
| 2026-04-21 08:19 | -26.16281 | 31.26428 | 37142 ft | 412 kts | 343° |
| 2026-04-21 08:20 | -26.10637 | 31.25316 | 37125 ft | 412 kts | 343° |
| 2026-04-21 08:20 | -26.04986 | 31.24203 | 37174 ft | 412 kts | 342° |
| 2026-04-21 08:21 | -25.99323 | 31.23088 | 37175 ft | 414 kts | 343° |
| 2026-04-21 08:21 | -25.93692 | 31.21982 | 37161 ft | 413 kts | 343° |
| 2026-04-21 08:22 | -25.88029 | 31.20868 | 37166 ft | 413 kts | 343° |
| 2026-04-21 08:22 | -25.82369 | 31.19757 | 37137 ft | 411 kts | 343° |
| 2026-04-21 08:23 | -25.76721 | 31.18646 | 37177 ft | 413 kts | 343° |
| 2026-04-21 08:23 | -25.71051 | 31.17541 | 37185 ft | 414 kts | 343° |
| 2026-04-21 08:24 | -25.65358 | 31.16429 | 37185 ft | 416 kts | 343° |
| 2026-04-21 08:24 | -25.59652 | 31.15314 | 37185 ft | 417 kts | 344° |
| 2026-04-21 08:25 | -25.53916 | 31.14195 | 37198 ft | 419 kts | 344° |
| 2026-04-21 08:25 | -25.49136 | 31.13262 | 37219 ft | 420 kts | 344° |
| 2026-04-21 08:26 | -25.43378 | 31.12140 | 37224 ft | 421 kts | 344° |
| 2026-04-21 08:26 | -25.37573 | 31.11125 | 37206 ft | 426 kts | 349° |
| 2026-04-21 08:27 | -25.31588 | 31.11215 | 37217 ft | 431 kts | 355° |
| 2026-04-21 08:27 | -25.25602 | 31.11430 | 37194 ft | 430 kts | 355° |
| 2026-04-21 08:28 | -25.19622 | 31.11624 | 37163 ft | 429 kts | 355° |
| 2026-04-21 08:28 | -25.13676 | 31.11797 | 37185 ft | 427 kts | 355° |
| 2026-04-21 08:29 | -25.07737 | 31.11960 | 37164 ft | 427 kts | 355° |
| 2026-04-21 08:29 | -25.01800 | 31.12122 | 37180 ft | 427 kts | 355° |
| 2026-04-21 08:30 | -24.95854 | 31.12285 | 37182 ft | 428 kts | 355° |
| 2026-04-21 08:30 | -24.89898 | 31.12450 | 37182 ft | 429 kts | 355° |
| 2026-04-21 08:31 | -24.83918 | 31.12617 | 37189 ft | 432 kts | 355° |
| 2026-04-21 08:31 | -24.77930 | 31.12765 | 37169 ft | 433 kts | 356° |
| 2026-04-21 08:32 | -24.71910 | 31.13002 | 37169 ft | 433 kts | 355° |
| 2026-04-21 08:32 | -24.65881 | 31.13142 | 37181 ft | 433 kts | 355° |
| 2026-04-21 08:33 | -24.59850 | 31.13288 | 37169 ft | 434 kts | 355° |
| 2026-04-21 08:33 | -24.53818 | 31.13447 | 37143 ft | 433 kts | 355° |
| 2026-04-21 08:34 | -24.47801 | 31.13606 | 37162 ft | 432 kts | 355° |
| 2026-04-21 08:34 | -24.41789 | 31.13775 | 37157 ft | 432 kts | 354° |
| 2026-04-21 08:35 | -24.35780 | 31.13946 | 37165 ft | 430 kts | 355° |
| 2026-04-21 08:35 | -24.29763 | 31.14130 | 37147 ft | 433 kts | 354° |
| 2026-04-21 08:36 | -24.23752 | 31.14268 | 37145 ft | 432 kts | 355° |
| 2026-04-21 08:36 | -24.17753 | 31.14440 | 37156 ft | 431 kts | 357° |
| 2026-04-21 08:37 | -24.11747 | 31.14553 | 37157 ft | 433 kts | 355° |
| 2026-04-21 08:37 | -24.05702 | 31.14669 | 37143 ft | 436 kts | 356° |
| 2026-04-21 08:38 | -23.99641 | 31.14935 | 37142 ft | 436 kts | 355° |
| 2026-04-21 08:38 | -23.93580 | 31.15101 | 37130 ft | 435 kts | 355° |
| 2026-04-21 08:39 | -23.87592 | 31.15061 | 37123 ft | 430 kts | 350° |
| 2026-04-21 08:39 | -23.81663 | 31.14408 | 37134 ft | 428 kts | 348° |
| 2026-04-21 08:40 | -23.75729 | 31.13843 | 37101 ft | 429 kts | 349° |
| 2026-04-21 08:40 | -23.69776 | 31.13251 | 37111 ft | 430 kts | 350° |
| 2026-04-21 08:41 | -23.63810 | 31.12672 | 37117 ft | 432 kts | 349° |
| 2026-04-21 08:41 | -23.57817 | 31.12084 | 37124 ft | 433 kts | 349° |
| 2026-04-21 08:42 | -23.51810 | 31.11515 | 37104 ft | 433 kts | 350° |
| 2026-04-21 08:42 | -23.45797 | 31.10933 | 37106 ft | 434 kts | 349° |
| 2026-04-21 08:43 | -23.39797 | 31.10319 | 37120 ft | 432 kts | 349° |
| 2026-04-21 08:43 | -23.33800 | 31.09729 | 37108 ft | 432 kts | 350° |
| 2026-04-21 08:44 | -23.27801 | 31.09169 | 37102 ft | 433 kts | 350° |
| 2026-04-21 08:44 | -23.21809 | 31.08603 | 37103 ft | 432 kts | 349° |
| 2026-04-21 08:45 | -23.15829 | 31.08027 | 37090 ft | 431 kts | 350° |
| 2026-04-21 08:45 | -23.09868 | 31.07451 | 37103 ft | 430 kts | 350° |
| 2026-04-21 08:46 | -23.03910 | 31.06882 | 37123 ft | 431 kts | 350° |
| 2026-04-21 08:46 | -22.97894 | 31.06352 | 37494 ft | 433 kts | 351° |
| 2026-04-21 08:46 | -22.94939 | 31.06082 | 37976 ft | 427 kts | 349° |
| 2026-04-21 08:47 | -22.92005 | 31.05765 | 38315 ft | 421 kts | 348° |
| 2026-04-21 08:47 | -22.86144 | 31.05181 | 38449 ft | 427 kts | 351° |
| 2026-04-21 08:48 | -22.80213 | 31.04656 | 38716 ft | 427 kts | 350° |
| 2026-04-21 08:48 | -22.77255 | 31.04364 | 38955 ft | 425 kts | 350° |
| 2026-04-21 08:48 | -22.74318 | 31.04073 | 39089 ft | 425 kts | 350° |
| 2026-04-21 08:49 | -22.68395 | 31.03493 | 39093 ft | 429 kts | 350° |
| 2026-04-21 08:49 | -22.62455 | 31.02925 | 39084 ft | 428 kts | 351° |
| 2026-04-21 08:50 | -22.56540 | 31.02366 | 39087 ft | 426 kts | 351° |
| 2026-04-21 08:50 | -22.50646 | 31.01809 | 39091 ft | 425 kts | 351° |
| 2026-04-21 08:51 | -22.44741 | 31.01243 | 39080 ft | 426 kts | 351° |
| 2026-04-21 08:51 | -22.38820 | 31.00680 | 39080 ft | 428 kts | 351° |
| 2026-04-21 08:52 | -22.32873 | 31.00113 | 39074 ft | 430 kts | 351° |
| 2026-04-21 08:52 | -22.26884 | 30.99632 | 39080 ft | 433 kts | 353° |
| 2026-04-21 08:53 | -22.20846 | 30.99256 | 39082 ft | 436 kts | 353° |
| 2026-04-21 08:53 | -22.14776 | 30.98879 | 39087 ft | 438 kts | 353° |
| 2026-04-21 08:54 | -22.08671 | 30.98488 | 39082 ft | 440 kts | 353° |
| 2026-04-21 08:54 | -22.02536 | 30.98087 | 39081 ft | 442 kts | 353° |
| 2026-04-21 08:55 | -21.96389 | 30.97684 | 39073 ft | 443 kts | 353° |
| 2026-04-21 08:55 | -21.90245 | 30.97283 | 39076 ft | 442 kts | 353° |
| 2026-04-21 08:56 | -21.84104 | 30.96881 | 39076 ft | 441 kts | 353° |
| 2026-04-21 08:56 | -21.78024 | 30.96484 | 39057 ft | 441 kts | 353° |
| 2026-04-21 08:57 | -21.71912 | 30.96086 | 39075 ft | 439 kts | 353° |
| 2026-04-21 08:57 | -21.65816 | 30.95689 | 39075 ft | 438 kts | 353° |
| 2026-04-21 08:58 | -21.59737 | 30.95292 | 39070 ft | 437 kts | 352° |
| 2026-04-21 08:58 | -21.53671 | 30.94897 | 39065 ft | 436 kts | 352° |
| 2026-04-21 08:59 | -21.47612 | 30.94503 | 39060 ft | 436 kts | 353° |
| 2026-04-21 08:59 | -21.41553 | 30.94109 | 39078 ft | 437 kts | 353° |
| 2026-04-21 09:00 | -21.35475 | 30.93714 | 39059 ft | 439 kts | 353° |
| 2026-04-21 09:00 | -21.29368 | 30.93317 | 39055 ft | 440 kts | 353° |
| 2026-04-21 09:01 | -21.23243 | 30.92920 | 39069 ft | 442 kts | 352° |
| 2026-04-21 09:01 | -21.17093 | 30.92522 | 39053 ft | 443 kts | 353° |
| 2026-04-21 09:02 | -21.10943 | 30.92124 | 39062 ft | 443 kts | 353° |
| 2026-04-21 09:02 | -21.04787 | 30.91726 | 39057 ft | 443 kts | 353° |
| 2026-04-21 09:03 | -20.95554 | 30.91130 | 39051 ft | 443 kts | 353° |
| 2026-04-21 09:03 | -20.89395 | 30.90732 | 39054 ft | 443 kts | 353° |
| 2026-04-21 09:04 | -20.83280 | 30.90338 | 39059 ft | 443 kts | 353° |
| 2026-04-21 09:04 | -20.77138 | 30.89942 | 39067 ft | 442 kts | 353° |
| 2026-04-21 09:05 | -20.70995 | 30.89547 | 39061 ft | 442 kts | 353° |
| 2026-04-21 09:05 | -20.64858 | 30.89152 | 39068 ft | 441 kts | 353° |
| 2026-04-21 09:06 | -20.58728 | 30.88758 | 39060 ft | 441 kts | 353° |
| 2026-04-21 09:06 | -20.52605 | 30.88365 | 39078 ft | 440 kts | 353° |
| 2026-04-21 09:07 | -20.46489 | 30.87972 | 39069 ft | 440 kts | 353° |
| 2026-04-21 09:07 | -20.40375 | 30.87580 | 39084 ft | 440 kts | 353° |
| 2026-04-21 09:08 | -20.34267 | 30.87189 | 39087 ft | 440 kts | 353° |
| 2026-04-21 09:08 | -20.28151 | 30.86797 | 39092 ft | 440 kts | 353° |
| 2026-04-21 09:09 | -20.22036 | 30.86407 | 39098 ft | 440 kts | 353° |
| 2026-04-21 09:09 | -20.15930 | 30.86016 | 39098 ft | 440 kts | 353° |
| 2026-04-21 09:10 | -20.09821 | 30.85625 | 39100 ft | 440 kts | 353° |
| 2026-04-21 09:10 | -20.03851 | 30.84561 | 39124 ft | 433 kts | 340° |
| 2026-04-21 09:11 | -19.98278 | 30.82197 | 39108 ft | 433 kts | 332° |
| 2026-04-21 09:11 | -19.92794 | 30.79551 | 39115 ft | 432 kts | 334° |
| 2026-04-21 09:12 | -19.87218 | 30.77096 | 39136 ft | 434 kts | 334° |
| 2026-04-21 09:12 | -19.81678 | 30.74517 | 39117 ft | 436 kts | 333° |
| 2026-04-21 09:13 | -19.76113 | 30.71951 | 39142 ft | 437 kts | 334° |
| 2026-04-21 09:13 | -19.70514 | 30.69422 | 39142 ft | 438 kts | 334° |
| 2026-04-21 09:14 | -19.65857 | 30.67324 | 39147 ft | 438 kts | 334° |
| 2026-04-21 09:14 | -19.60248 | 30.64796 | 39153 ft | 438 kts | 334° |
| 2026-04-21 09:15 | -19.54645 | 30.62268 | 39150 ft | 438 kts | 334° |
| 2026-04-21 09:15 | -19.49041 | 30.59742 | 39162 ft | 437 kts | 334° |
| 2026-04-21 09:16 | -19.43440 | 30.57218 | 39169 ft | 438 kts | 334° |
| 2026-04-21 09:16 | -19.37830 | 30.54692 | 39170 ft | 438 kts | 334° |
| 2026-04-21 09:17 | -19.32222 | 30.52170 | 39178 ft | 438 kts | 334° |
| 2026-04-21 09:17 | -19.26612 | 30.49648 | 39174 ft | 438 kts | 334° |
| 2026-04-21 09:18 | -19.21003 | 30.47129 | 39185 ft | 438 kts | 334° |
| 2026-04-21 09:18 | -19.15396 | 30.44612 | 39181 ft | 438 kts | 334° |
| 2026-04-21 09:19 | -19.09791 | 30.42098 | 39183 ft | 438 kts | 334° |
| 2026-04-21 09:19 | -19.04220 | 30.39601 | 39181 ft | 438 kts | 335° |
| 2026-04-21 09:20 | -18.98617 | 30.37092 | 39186 ft | 437 kts | 335° |
| 2026-04-21 09:20 | -18.93018 | 30.34586 | 39187 ft | 437 kts | 335° |
| 2026-04-21 09:21 | -18.87425 | 30.32085 | 39190 ft | 436 kts | 335° |
| 2026-04-21 09:21 | -18.81842 | 30.29590 | 39195 ft | 436 kts | 335° |
| 2026-04-21 09:22 | -18.76261 | 30.27097 | 39194 ft | 436 kts | 335° |
| 2026-04-21 09:22 | -18.70682 | 30.24604 | 39198 ft | 435 kts | 335° |
| 2026-04-21 09:23 | -18.65100 | 30.22122 | 39203 ft | 436 kts | 335° |
| 2026-04-21 09:23 | -18.59518 | 30.19625 | 39205 ft | 436 kts | 335° |
| 2026-04-21 09:24 | -18.53944 | 30.17102 | 39200 ft | 436 kts | 335° |
| 2026-04-21 09:24 | -18.48360 | 30.14578 | 39194 ft | 436 kts | 335° |
| 2026-04-21 09:25 | -18.42765 | 30.12056 | 39182 ft | 437 kts | 335° |
| 2026-04-21 09:25 | -18.37214 | 30.09513 | 39175 ft | 435 kts | 334° |
| 2026-04-21 09:26 | -18.31626 | 30.07010 | 39180 ft | 437 kts | 335° |
| 2026-04-21 09:26 | -18.26053 | 30.04527 | 39177 ft | 439 kts | 335° |
| 2026-04-21 09:27 | -18.20442 | 30.01968 | 39171 ft | 440 kts | 333° |
| 2026-04-21 09:27 | -18.14914 | 29.99186 | 39173 ft | 441 kts | 332° |
| 2026-04-21 09:28 | -18.09377 | 29.96366 | 39165 ft | 443 kts | 333° |
| 2026-04-21 09:28 | -18.03808 | 29.93570 | 39154 ft | 444 kts | 333° |
| 2026-04-21 09:29 | -17.98226 | 29.90780 | 39148 ft | 445 kts | 333° |
| 2026-04-21 09:29 | -17.92554 | 29.88162 | 39143 ft | 446 kts | 336° |
| 2026-04-21 09:30 | -17.86786 | 29.85779 | 39147 ft | 445 kts | 337° |
| 2026-04-21 09:30 | -17.81017 | 29.83405 | 39144 ft | 445 kts | 337° |
| 2026-04-21 09:31 | -17.75264 | 29.81005 | 39134 ft | 445 kts | 336° |
| 2026-04-21 09:31 | -17.69524 | 29.78597 | 39128 ft | 444 kts | 336° |
| 2026-04-21 09:32 | -17.63797 | 29.76192 | 39122 ft | 443 kts | 336° |
| 2026-04-21 09:32 | -17.58080 | 29.73795 | 39127 ft | 442 kts | 337° |
| 2026-04-21 09:33 | -17.52376 | 29.71405 | 39129 ft | 441 kts | 336° |
| 2026-04-21 09:33 | -17.46685 | 29.69022 | 39121 ft | 440 kts | 336° |
| 2026-04-21 09:34 | -17.41001 | 29.66642 | 39123 ft | 440 kts | 336° |
| 2026-04-21 09:34 | -17.35320 | 29.64267 | 39127 ft | 439 kts | 336° |
| 2026-04-21 09:35 | -17.29645 | 29.61897 | 39133 ft | 439 kts | 337° |
| 2026-04-21 09:35 | -17.23975 | 29.59530 | 39124 ft | 438 kts | 336° |
| 2026-04-21 09:36 | -17.18318 | 29.57153 | 39127 ft | 438 kts | 334° |
| 2026-04-21 09:36 | -17.13217 | 29.53741 | 39138 ft | 436 kts | 316° |
| 2026-04-21 09:37 | -17.08946 | 29.49252 | 39135 ft | 436 kts | 313° |
| 2026-04-21 09:37 | -17.04719 | 29.44700 | 39124 ft | 437 kts | 313° |
| 2026-04-21 09:38 | -17.00454 | 29.40155 | 39140 ft | 438 kts | 313° |
| 2026-04-21 09:38 | -16.96189 | 29.35642 | 39090 ft | 441 kts | 314° |
| 2026-04-21 09:39 | -16.93982 | 29.33311 | 38550 ft | 448 kts | 314° |
| 2026-04-21 09:39 | -16.91822 | 29.31033 | 38018 ft | 446 kts | 314° |
| 2026-04-21 09:39 | -16.89616 | 29.28707 | 37449 ft | 444 kts | 314° |
| 2026-04-21 09:39 | -16.87474 | 29.26448 | 36855 ft | 444 kts | 314° |
| 2026-04-21 09:40 | -16.85303 | 29.24161 | 36264 ft | 443 kts | 314° |
| 2026-04-21 09:40 | -16.83134 | 29.21874 | 35640 ft | 444 kts | 314° |
| 2026-04-21 09:40 | -16.80953 | 29.19576 | 34977 ft | 447 kts | 315° |
| 2026-04-21 09:40 | -16.78762 | 29.17267 | 34311 ft | 449 kts | 315° |
| 2026-04-21 09:41 | -16.76565 | 29.14954 | 33782 ft | 447 kts | 315° |
| 2026-04-21 09:41 | -16.74381 | 29.12654 | 33224 ft | 444 kts | 315° |
| 2026-04-21 09:41 | -16.72215 | 29.10375 | 32758 ft | 441 kts | 315° |
| 2026-04-21 09:41 | -16.70060 | 29.08110 | 32291 ft | 437 kts | 315° |
| 2026-04-21 09:42 | -16.67928 | 29.05868 | 31802 ft | 434 kts | 315° |
| 2026-04-21 09:42 | -16.65810 | 29.03641 | 31338 ft | 431 kts | 315° |
| 2026-04-21 09:42 | -16.63706 | 29.01429 | 30886 ft | 428 kts | 316° |
| 2026-04-21 09:42 | -16.61615 | 28.99231 | 30422 ft | 426 kts | 316° |
| 2026-04-21 09:43 | -16.59533 | 28.97044 | 29959 ft | 424 kts | 316° |
| 2026-04-21 09:43 | -16.57461 | 28.94869 | 29431 ft | 422 kts | 316° |
| 2026-04-21 09:43 | -16.55402 | 28.92708 | 28950 ft | 418 kts | 316° |
| 2026-04-21 09:43 | -16.53362 | 28.90569 | 28479 ft | 414 kts | 316° |
| 2026-04-21 09:44 | -16.51319 | 28.88476 | 28022 ft | 410 kts | 319° |
| 2026-04-21 09:44 | -16.49081 | 28.86654 | 27557 ft | 407 kts | 325° |
| 2026-04-21 09:44 | -16.46771 | 28.84960 | 27094 ft | 404 kts | 326° |
| 2026-04-21 09:44 | -16.44468 | 28.83299 | 26644 ft | 402 kts | 326° |
| 2026-04-21 09:45 | -16.42179 | 28.81644 | 26194 ft | 400 kts | 326° |
| 2026-04-21 09:45 | -16.39905 | 28.79989 | 25756 ft | 398 kts | 326° |
| 2026-04-21 09:45 | -16.37700 | 28.78374 | 25326 ft | 396 kts | 325° |
| 2026-04-21 09:45 | -16.35432 | 28.76704 | 24879 ft | 395 kts | 325° |
| 2026-04-21 09:46 | -16.33190 | 28.75048 | 24431 ft | 394 kts | 325° |
| 2026-04-21 09:46 | -16.30962 | 28.73401 | 23990 ft | 393 kts | 325° |
| 2026-04-21 09:46 | -16.28738 | 28.71756 | 23562 ft | 391 kts | 326° |
| 2026-04-21 09:46 | -16.26525 | 28.70120 | 23075 ft | 389 kts | 326° |
| 2026-04-21 09:47 | -16.24342 | 28.68507 | 22626 ft | 386 kts | 326° |
| 2026-04-21 09:47 | -16.22156 | 28.66893 | 22192 ft | 384 kts | 325° |
| 2026-04-21 09:47 | -16.19986 | 28.65290 | 21762 ft | 381 kts | 326° |
| 2026-04-21 09:47 | -16.17836 | 28.63700 | 21354 ft | 378 kts | 326° |
| 2026-04-21 09:48 | -16.15697 | 28.62121 | 20939 ft | 376 kts | 327° |
| 2026-04-21 09:48 | -16.13576 | 28.60555 | 20533 ft | 373 kts | 326° |
| 2026-04-21 09:48 | -16.11468 | 28.59002 | 20125 ft | 370 kts | 326° |
| 2026-04-21 09:48 | -16.09369 | 28.57454 | 19710 ft | 370 kts | 326° |
| 2026-04-21 09:49 | -16.07273 | 28.55907 | 19289 ft | 369 kts | 327° |
| 2026-04-21 09:49 | -16.05189 | 28.54372 | 18959 ft | 365 kts | 327° |
| 2026-04-21 09:49 | -16.03131 | 28.52856 | 18650 ft | 361 kts | 327° |
| 2026-04-21 09:49 | -16.01086 | 28.51351 | 18256 ft | 360 kts | 327° |
| 2026-04-21 09:50 | -15.99048 | 28.49851 | 17814 ft | 358 kts | 326° |
| 2026-04-21 09:50 | -15.98360 | 28.49344 | 17657 ft | 357 kts | 326° |
| 2026-04-21 09:50 | -15.93000 | 28.45402 | 16560 ft | 354 kts | 328° |
| 2026-04-21 09:51 | -15.90985 | 28.43921 | 16067 ft | 356 kts | 328° |
| 2026-04-21 09:51 | -15.88969 | 28.42436 | 15638 ft | 355 kts | 327° |
| 2026-04-21 09:51 | -15.86952 | 28.40953 | 15213 ft | 355 kts | 327° |
| 2026-04-21 09:51 | -15.84938 | 28.39474 | 14793 ft | 354 kts | 327° |
| 2026-04-21 09:52 | -15.82927 | 28.37995 | 14385 ft | 354 kts | 327° |
| 2026-04-21 09:52 | -15.80924 | 28.36520 | 13973 ft | 353 kts | 328° |
| 2026-04-21 09:52 | -15.78917 | 28.35043 | 13511 ft | 353 kts | 328° |
| 2026-04-21 09:52 | -15.76920 | 28.33579 | 13098 ft | 351 kts | 328° |
| 2026-04-21 09:53 | -15.74926 | 28.32118 | 12696 ft | 350 kts | 327° |
| 2026-04-21 09:53 | -15.72946 | 28.30663 | 12307 ft | 348 kts | 327° |
| 2026-04-21 09:53 | -15.70974 | 28.29216 | 11912 ft | 346 kts | 327° |
| 2026-04-21 09:53 | -15.69040 | 28.27798 | 11518 ft | 344 kts | 327° |
| 2026-04-21 09:54 | -15.67089 | 28.26364 | 11142 ft | 343 kts | 327° |
| 2026-04-21 09:54 | -15.65144 | 28.24941 | 10755 ft | 342 kts | 327° |
| 2026-04-21 09:54 | -15.63209 | 28.23524 | 10406 ft | 338 kts | 326° |
| 2026-04-21 09:54 | -15.61317 | 28.22136 | 10273 ft | 328 kts | 326° |
| 2026-04-21 09:55 | -15.59475 | 28.20785 | 10120 ft | 320 kts | 327° |
| 2026-04-21 09:55 | -15.57673 | 28.19477 | 9922 ft | 313 kts | 330° |
| 2026-04-21 09:55 | -15.55697 | 28.18662 | 9571 ft | 303 kts | 355° |
| 2026-04-21 09:55 | -15.53622 | 28.18723 | 9272 ft | 296 kts | 13° |
| 2026-04-21 09:56 | -15.51633 | 28.19206 | 8998 ft | 293 kts | 17° |
| 2026-04-21 09:56 | -15.49661 | 28.19745 | 8704 ft | 292 kts | 17° |
| 2026-04-21 09:56 | -15.47702 | 28.20279 | 8385 ft | 290 kts | 17° |
| 2026-04-21 09:56 | -15.45747 | 28.20803 | 8122 ft | 289 kts | 17° |
| 2026-04-21 09:57 | -15.43827 | 28.21305 | 8006 ft | 281 kts | 17° |
| 2026-04-21 09:57 | -15.41955 | 28.21787 | 7889 ft | 273 kts | 17° |
| 2026-04-21 09:57 | -15.40140 | 28.22256 | 7763 ft | 265 kts | 17° |
| 2026-04-21 09:57 | -15.38381 | 28.22708 | 7657 ft | 257 kts | 18° |
| 2026-04-21 09:58 | -15.36672 | 28.23150 | 7556 ft | 249 kts | 18° |
| 2026-04-21 09:58 | -15.35013 | 28.23575 | 7466 ft | 242 kts | 18° |
| 2026-04-21 09:58 | -15.33415 | 28.23985 | 7366 ft | 231 kts | 20° |
| 2026-04-21 09:58 | -15.32128 | 28.24840 | 7131 ft | 215 kts | 58° |
| 2026-04-21 09:59 | -15.31687 | 28.26259 | 6933 ft | 205 kts | 84° |
| 2026-04-21 09:59 | -15.31636 | 28.27715 | 6703 ft | 199 kts | 89° |
| 2026-04-21 09:59 | -15.31683 | 28.29136 | 6446 ft | 196 kts | 92° |
| 2026-04-21 09:59 | -15.31787 | 28.30531 | 6211 ft | 194 kts | 94° |
| 2026-04-21 10:00 | -15.31908 | 28.31909 | 5979 ft | 189 kts | 94° |
| 2026-04-21 10:00 | -15.32027 | 28.33254 | 5759 ft | 186 kts | 94° |
| 2026-04-21 10:00 | -15.32144 | 28.34600 | 5526 ft | 187 kts | 94° |
| 2026-04-21 10:00 | -15.32260 | 28.35921 | 5291 ft | 178 kts | 95° |
| 2026-04-21 10:01 | -15.32366 | 28.37140 | 5065 ft | 166 kts | 93° |
| 2026-04-21 10:01 | -15.32466 | 28.38286 | 4850 ft | 157 kts | 92° |
| 2026-04-21 10:01 | -15.32562 | 28.39390 | 4635 ft | 153 kts | 93° |
| 2026-04-21 10:01 | -15.32657 | 28.40470 | 4414 ft | 149 kts | 92° |
| 2026-04-21 10:02 | -15.32840 | 28.42600 | 3968 ft | 151 kts | 94° |
| 2026-04-21 10:02 | -15.32939 | 28.43700 | 3768 ft | 152 kts | 94° |
| 2026-04-21 10:02 | -15.33025 | 28.44663 | 3765 ft | 114 kts | 96° |
| 2026-04-21 10:03 | -15.33082 | 28.45323 | 3774 ft | 70 kts | 95° |
| 2026-04-21 10:03 | -15.33114 | 28.45692 | 3766 ft | 38 kts | 96° |
| 2026-04-21 10:03 | -15.33135 | 28.45933 | 3765 ft | 19 kts | 89° |
| 2026-04-21 10:03 | -15.33047 | 28.45970 | 3774 ft | 14 kts | 351° |
| 2026-04-21 10:04 | -15.32990 | 28.45945 | 3772 ft | 13 kts | 326° |
| 2026-04-21 10:04 | -15.32938 | 28.45876 | 3771 ft | 12 kts | 289° |
| 2026-04-21 10:04 | -15.32929 | 28.45788 | 3765 ft | 14 kts | 275° |
| 2026-04-21 10:04 | -15.32920 | 28.45681 | 3778 ft | 16 kts | 275° |
| 2026-04-21 10:05 | -15.32911 | 28.45554 | 3765 ft | 19 kts | 274° |
| 2026-04-21 10:05 | -15.32896 | 28.45413 | 3764 ft | 21 kts | 276° |
| 2026-04-21 10:05 | -15.32884 | 28.45262 | 3764 ft | 21 kts | 274° |
| 2026-04-21 10:05 | -15.32870 | 28.45115 | 3764 ft | 20 kts | 276° |
| 2026-04-21 10:06 | -15.32857 | 28.44971 | 3765 ft | 20 kts | 275° |
| 2026-04-21 10:06 | -15.32846 | 28.44832 | 3768 ft | 19 kts | 275° |
| 2026-04-21 10:06 | -15.32832 | 28.44702 | 3765 ft | 17 kts | 286° |
| 2026-04-21 10:06 | -15.32751 | 28.44627 | 3767 ft | 16 kts | 348° |
| 2026-04-21 10:07 | -15.32674 | 28.44625 | 3773 ft | 0 kts | 26° |
| 2026-04-21 10:07 | -15.32667 | 28.44631 | 3769 ft | 4 kts | 46° |
| 2026-04-21 10:07 | -15.32661 | 28.44661 | 3765 ft | 4 kts | 89° |
| 2026-04-21 10:07 | -15.32663 | 28.44692 | 3775 ft | 4 kts | 95° |
| 2026-04-21 10:08 | -15.32665 | 28.44717 | 3772 ft | 0 kts | 96° |